sensor_id;sensor_type;location;lat;lon;timestamp;P1;durP1;ratioP1;P2;durP2;ratioP2
11439;SDS011;5776;51.814;4.510;2023-01-06T00:02:22;5.97;;;2.47;;
11439;SDS011;5776;51.814;4.510;2023-01-06T00:04:48;5.57;;;1.90;;
11439;SDS011;5776;51.814;4.510;2023-01-06T00:07:14;7.57;;;2.20;;
11439;SDS011;5776;51.814;4.510;2023-01-06T00:09:39;4.97;;;2.10;;
11439;SDS011;5776;51.814;4.510;2023-01-06T00:12:08;4.77;;;2.20;;
11439;SDS011;5776;51.814;4.510;2023-01-06T00:14:34;4.77;;;2.53;;
11439;SDS011;5776;51.814;4.510;2023-01-06T00:17:00;4.00;;;2.17;;
11439;SDS011;5776;51.814;4.510;2023-01-06T00:19:26;5.37;;;2.40;;
11439;SDS011;5776;51.814;4.510;2023-01-06T00:21:52;7.83;;;2.00;;
11439;SDS011;5776;51.814;4.510;2023-01-06T00:24:18;7.70;;;2.03;;
11439;SDS011;5776;51.814;4.510;2023-01-06T00:26:44;6.80;;;1.90;;
11439;SDS011;5776;51.814;4.510;2023-01-06T00:29:11;7.37;;;2.30;;
11439;SDS011;5776;51.814;4.510;2023-01-06T00:31:37;4.23;;;2.13;;
11439;SDS011;5776;51.814;4.510;2023-01-06T00:34:03;9.17;;;2.30;;
11439;SDS011;5776;51.814;4.510;2023-01-06T00:36:29;5.73;;;2.50;;
11439;SDS011;5776;51.814;4.510;2023-01-06T00:38:55;4.93;;;1.70;;
11439;SDS011;5776;51.814;4.510;2023-01-06T00:41:21;7.63;;;2.20;;
11439;SDS011;5776;51.814;4.510;2023-01-06T00:44:06;6.80;;;2.53;;
11439;SDS011;5776;51.814;4.510;2023-01-06T00:46:32;5.80;;;2.10;;
11439;SDS011;5776;51.814;4.510;2023-01-06T00:48:59;10.60;;;2.30;;
11439;SDS011;5776;51.814;4.510;2023-01-06T00:51:26;9.80;;;1.80;;
11439;SDS011;5776;51.814;4.510;2023-01-06T00:53:52;6.47;;;2.20;;
11439;SDS011;5776;51.814;4.510;2023-01-06T00:56:18;4.80;;;1.60;;
11439;SDS011;5776;51.814;4.510;2023-01-06T00:58:45;4.50;;;1.90;;
11439;SDS011;5776;51.814;4.510;2023-01-06T01:01:10;5.23;;;1.53;;
11439;SDS011;5776;51.814;4.510;2023-01-06T01:03:37;4.33;;;1.90;;
11439;SDS011;5776;51.814;4.510;2023-01-06T01:06:04;7.63;;;1.93;;
11439;SDS011;5776;51.814;4.510;2023-01-06T01:08:32;8.57;;;2.07;;
11439;SDS011;5776;51.814;4.510;2023-01-06T01:11:05;9.17;;;1.77;;
11439;SDS011;5776;51.814;4.510;2023-01-06T01:13:33;7.83;;;1.93;;
11439;SDS011;5776;51.814;4.510;2023-01-06T01:16:03;4.47;;;1.53;;
11439;SDS011;5776;51.814;4.510;2023-01-06T01:18:30;5.47;;;1.60;;
11439;SDS011;5776;51.814;4.510;2023-01-06T01:20:56;4.50;;;1.63;;
11439;SDS011;5776;51.814;4.510;2023-01-06T01:23:22;5.50;;;1.73;;
11439;SDS011;5776;51.814;4.510;2023-01-06T01:25:48;4.63;;;1.57;;
11439;SDS011;5776;51.814;4.510;2023-01-06T01:28:14;6.50;;;1.83;;
11439;SDS011;5776;51.814;4.510;2023-01-06T01:30:40;2.53;;;1.43;;
11439;SDS011;5776;51.814;4.510;2023-01-06T01:33:06;4.83;;;1.60;;
11439;SDS011;5776;51.814;4.510;2023-01-06T01:35:32;7.43;;;1.73;;
11439;SDS011;5776;51.814;4.510;2023-01-06T01:37:58;4.23;;;1.60;;
11439;SDS011;5776;51.814;4.510;2023-01-06T01:40:24;4.57;;;1.70;;
11439;SDS011;5776;51.814;4.510;2023-01-06T01:42:50;7.63;;;1.50;;
11439;SDS011;5776;51.814;4.510;2023-01-06T01:45:23;5.97;;;1.80;;
11439;SDS011;5776;51.814;4.510;2023-01-06T01:50:37;6.47;;;2.10;;
11439;SDS011;5776;51.814;4.510;2023-01-06T01:53:27;6.63;;;1.53;;
11439;SDS011;5776;51.814;4.510;2023-01-06T01:55:56;7.73;;;1.87;;
11439;SDS011;5776;51.814;4.510;2023-01-06T01:58:24;9.47;;;1.50;;
11439;SDS011;5776;51.814;4.510;2023-01-06T02:00:58;6.00;;;1.63;;
11439;SDS011;5776;51.814;4.510;2023-01-06T02:03:24;5.70;;;1.60;;
11439;SDS011;5776;51.814;4.510;2023-01-06T02:05:52;3.70;;;1.27;;
11439;SDS011;5776;51.814;4.510;2023-01-06T02:10:52;4.60;;;1.60;;
11439;SDS011;5776;51.814;4.510;2023-01-06T02:13:19;8.23;;;1.40;;
11439;SDS011;5776;51.814;4.510;2023-01-06T02:15:44;3.10;;;1.20;;
11439;SDS011;5776;51.814;4.510;2023-01-06T02:20:50;7.00;;;1.77;;
11439;SDS011;5776;51.814;4.510;2023-01-06T02:23:42;3.43;;;1.00;;
11439;SDS011;5776;51.814;4.510;2023-01-06T02:42:36;4.67;;;1.23;;
11439;SDS011;5776;51.814;4.510;2023-01-06T02:48:07;3.53;;;1.17;;
11439;SDS011;5776;51.814;4.510;2023-01-06T02:50:45;7.03;;;1.20;;
11439;SDS011;5776;51.814;4.510;2023-01-06T02:56:10;2.50;;;0.90;;
11439;SDS011;5776;51.814;4.510;2023-01-06T02:58:56;4.80;;;1.20;;
11439;SDS011;5776;51.814;4.510;2023-01-06T03:01:32;5.40;;;1.40;;
11439;SDS011;5776;51.814;4.510;2023-01-06T03:04:06;4.77;;;1.20;;
11439;SDS011;5776;51.814;4.510;2023-01-06T03:06:44;4.70;;;1.30;;
11439;SDS011;5776;51.814;4.510;2023-01-06T03:09:13;8.90;;;1.27;;
11439;SDS011;5776;51.814;4.510;2023-01-06T03:11:41;4.17;;;1.20;;
11439;SDS011;5776;51.814;4.510;2023-01-06T03:14:15;4.63;;;1.13;;
11439;SDS011;5776;51.814;4.510;2023-01-06T03:16:56;5.97;;;1.30;;
11439;SDS011;5776;51.814;4.510;2023-01-06T03:19:23;6.43;;;1.27;;
11439;SDS011;5776;51.814;4.510;2023-01-06T03:21:49;5.47;;;1.30;;
11439;SDS011;5776;51.814;4.510;2023-01-06T03:24:16;5.57;;;1.00;;
11439;SDS011;5776;51.814;4.510;2023-01-06T03:26:43;3.23;;;1.20;;
11439;SDS011;5776;51.814;4.510;2023-01-06T03:29:11;2.70;;;1.10;;
11439;SDS011;5776;51.814;4.510;2023-01-06T03:42:49;2.97;;;1.13;;
11439;SDS011;5776;51.814;4.510;2023-01-06T03:45:41;2.80;;;1.30;;
11439;SDS011;5776;51.814;4.510;2023-01-06T03:50:56;4.03;;;1.37;;
11439;SDS011;5776;51.814;4.510;2023-01-06T03:53:41;4.90;;;1.83;;
11439;SDS011;5776;51.814;4.510;2023-01-06T03:56:18;3.60;;;1.20;;
11439;SDS011;5776;51.814;4.510;2023-01-06T03:58:52;5.07;;;1.17;;
11439;SDS011;5776;51.814;4.510;2023-01-06T04:01:20;4.10;;;1.13;;
11439;SDS011;5776;51.814;4.510;2023-01-06T04:03:50;4.00;;;1.07;;
11439;SDS011;5776;51.814;4.510;2023-01-06T04:06:18;2.40;;;0.90;;
11439;SDS011;5776;51.814;4.510;2023-01-06T04:08:43;3.27;;;1.10;;
11439;SDS011;5776;51.814;4.510;2023-01-06T04:11:09;5.87;;;1.37;;
11439;SDS011;5776;51.814;4.510;2023-01-06T04:13:58;3.23;;;1.20;;
11439;SDS011;5776;51.814;4.510;2023-01-06T04:16:25;4.07;;;1.33;;
11439;SDS011;5776;51.814;4.510;2023-01-06T04:18:51;2.43;;;1.10;;
11439;SDS011;5776;51.814;4.510;2023-01-06T04:21:17;5.07;;;1.43;;
11439;SDS011;5776;51.814;4.510;2023-01-06T04:23:43;3.87;;;1.07;;
11439;SDS011;5776;51.814;4.510;2023-01-06T04:26:08;3.73;;;1.00;;
11439;SDS011;5776;51.814;4.510;2023-01-06T04:28:34;2.53;;;1.00;;
11439;SDS011;5776;51.814;4.510;2023-01-06T04:31:00;5.53;;;1.20;;
11439;SDS011;5776;51.814;4.510;2023-01-06T04:33:27;4.43;;;1.30;;
11439;SDS011;5776;51.814;4.510;2023-01-06T04:35:53;2.70;;;1.30;;
11439;SDS011;5776;51.814;4.510;2023-01-06T04:38:19;3.07;;;1.20;;
11439;SDS011;5776;51.814;4.510;2023-01-06T04:40:45;2.10;;;1.00;;
11439;SDS011;5776;51.814;4.510;2023-01-06T04:43:11;4.77;;;1.20;;
11439;SDS011;5776;51.814;4.510;2023-01-06T04:45:41;3.10;;;1.00;;
11439;SDS011;5776;51.814;4.510;2023-01-06T04:48:10;3.13;;;1.20;;
11439;SDS011;5776;51.814;4.510;2023-01-06T04:50:37;3.40;;;1.00;;
11439;SDS011;5776;51.814;4.510;2023-01-06T04:53:04;3.93;;;0.90;;
11439;SDS011;5776;51.814;4.510;2023-01-06T04:55:30;4.33;;;0.90;;
11439;SDS011;5776;51.814;4.510;2023-01-06T04:57:56;2.37;;;1.13;;
11439;SDS011;5776;51.814;4.510;2023-01-06T05:00:23;1.47;;;0.70;;
11439;SDS011;5776;51.814;4.510;2023-01-06T05:02:49;2.37;;;1.10;;
11439;SDS011;5776;51.814;4.510;2023-01-06T05:05:15;3.40;;;1.10;;
11439;SDS011;5776;51.814;4.510;2023-01-06T05:07:41;4.13;;;1.10;;
11439;SDS011;5776;51.814;4.510;2023-01-06T05:10:08;2.13;;;0.70;;
11439;SDS011;5776;51.814;4.510;2023-01-06T05:12:34;1.57;;;0.93;;
11439;SDS011;5776;51.814;4.510;2023-01-06T05:15:01;2.77;;;0.83;;
11439;SDS011;5776;51.814;4.510;2023-01-06T05:17:27;4.30;;;1.33;;
11439;SDS011;5776;51.814;4.510;2023-01-06T05:19:53;1.27;;;0.93;;
11439;SDS011;5776;51.814;4.510;2023-01-06T05:22:19;6.70;;;1.00;;
11439;SDS011;5776;51.814;4.510;2023-01-06T05:24:45;4.40;;;1.00;;
11439;SDS011;5776;51.814;4.510;2023-01-06T05:27:11;4.63;;;0.93;;
11439;SDS011;5776;51.814;4.510;2023-01-06T05:29:37;3.83;;;0.90;;
11439;SDS011;5776;51.814;4.510;2023-01-06T05:32:03;2.97;;;0.93;;
11439;SDS011;5776;51.814;4.510;2023-01-06T05:34:29;5.13;;;1.07;;
11439;SDS011;5776;51.814;4.510;2023-01-06T05:36:55;4.47;;;0.87;;
11439;SDS011;5776;51.814;4.510;2023-01-06T05:39:22;3.43;;;1.10;;
11439;SDS011;5776;51.814;4.510;2023-01-06T05:41:48;2.77;;;1.10;;
11439;SDS011;5776;51.814;4.510;2023-01-06T05:44:14;3.20;;;1.17;;
11439;SDS011;5776;51.814;4.510;2023-01-06T05:46:40;3.87;;;1.00;;
11439;SDS011;5776;51.814;4.510;2023-01-06T05:49:06;4.10;;;1.03;;
11439;SDS011;5776;51.814;4.510;2023-01-06T05:51:31;3.57;;;1.10;;
11439;SDS011;5776;51.814;4.510;2023-01-06T05:53:57;1.80;;;0.93;;
11439;SDS011;5776;51.814;4.510;2023-01-06T05:56:23;3.17;;;1.07;;
11439;SDS011;5776;51.814;4.510;2023-01-06T05:58:50;5.57;;;1.10;;
11439;SDS011;5776;51.814;4.510;2023-01-06T06:03:53;2.70;;;1.00;;
11439;SDS011;5776;51.814;4.510;2023-01-06T06:06:19;2.47;;;1.23;;
11439;SDS011;5776;51.814;4.510;2023-01-06T06:08:47;2.13;;;1.33;;
11439;SDS011;5776;51.814;4.510;2023-01-06T06:11:13;3.33;;;1.30;;
11439;SDS011;5776;51.814;4.510;2023-01-06T06:13:49;1.80;;;1.10;;
11439;SDS011;5776;51.814;4.510;2023-01-06T06:16:18;2.30;;;1.13;;
11439;SDS011;5776;51.814;4.510;2023-01-06T06:18:52;2.37;;;1.10;;
11439;SDS011;5776;51.814;4.510;2023-01-06T06:21:20;1.43;;;1.07;;
11439;SDS011;5776;51.814;4.510;2023-01-06T06:23:48;1.87;;;1.20;;
11439;SDS011;5776;51.814;4.510;2023-01-06T06:26:14;4.13;;;1.53;;
11439;SDS011;5776;51.814;4.510;2023-01-06T06:28:40;1.67;;;1.20;;
11439;SDS011;5776;51.814;4.510;2023-01-06T06:31:08;1.50;;;1.10;;
11439;SDS011;5776;51.814;4.510;2023-01-06T06:33:39;2.97;;;1.10;;
11439;SDS011;5776;51.814;4.510;2023-01-06T06:36:05;1.63;;;1.00;;
11439;SDS011;5776;51.814;4.510;2023-01-06T06:38:42;2.40;;;1.50;;
11439;SDS011;5776;51.814;4.510;2023-01-06T06:41:09;0.97;;;0.83;;
11439;SDS011;5776;51.814;4.510;2023-01-06T06:43:35;1.20;;;0.80;;
11439;SDS011;5776;51.814;4.510;2023-01-06T06:46:00;1.67;;;0.83;;
11439;SDS011;5776;51.814;4.510;2023-01-06T06:48:27;1.30;;;0.90;;
11439;SDS011;5776;51.814;4.510;2023-01-06T06:50:58;2.73;;;1.03;;
11439;SDS011;5776;51.814;4.510;2023-01-06T06:53:25;3.57;;;0.90;;
11439;SDS011;5776;51.814;4.510;2023-01-06T06:55:51;2.83;;;1.67;;
11439;SDS011;5776;51.814;4.510;2023-01-06T06:58:18;1.10;;;0.93;;
11439;SDS011;5776;51.814;4.510;2023-01-06T07:00:44;3.30;;;1.13;;
11439;SDS011;5776;51.814;4.510;2023-01-06T07:03:09;2.90;;;1.80;;
11439;SDS011;5776;51.814;4.510;2023-01-06T07:05:35;1.60;;;1.00;;
11439;SDS011;5776;51.814;4.510;2023-01-06T07:08:01;1.77;;;0.90;;
11439;SDS011;5776;51.814;4.510;2023-01-06T07:10:28;1.73;;;0.97;;
11439;SDS011;5776;51.814;4.510;2023-01-06T07:12:54;2.33;;;1.10;;
11439;SDS011;5776;51.814;4.510;2023-01-06T07:15:20;1.37;;;0.90;;
11439;SDS011;5776;51.814;4.510;2023-01-06T07:17:46;2.83;;;0.90;;
11439;SDS011;5776;51.814;4.510;2023-01-06T07:20:12;2.10;;;0.90;;
11439;SDS011;5776;51.814;4.510;2023-01-06T07:22:38;1.63;;;0.83;;
11439;SDS011;5776;51.814;4.510;2023-01-06T07:25:05;1.70;;;0.80;;
11439;SDS011;5776;51.814;4.510;2023-01-06T07:27:32;1.73;;;0.60;;
11439;SDS011;5776;51.814;4.510;2023-01-06T07:29:58;1.63;;;0.70;;
11439;SDS011;5776;51.814;4.510;2023-01-06T07:32:24;2.90;;;0.80;;
11439;SDS011;5776;51.814;4.510;2023-01-06T07:34:50;1.03;;;0.57;;
11439;SDS011;5776;51.814;4.510;2023-01-06T07:37:16;2.63;;;1.13;;
11439;SDS011;5776;51.814;4.510;2023-01-06T07:39:42;2.70;;;0.80;;
11439;SDS011;5776;51.814;4.510;2023-01-06T07:42:08;3.70;;;1.13;;
11439;SDS011;5776;51.814;4.510;2023-01-06T07:44:34;1.80;;;0.77;;
11439;SDS011;5776;51.814;4.510;2023-01-06T07:47:01;4.13;;;1.30;;
11439;SDS011;5776;51.814;4.510;2023-01-06T07:49:27;7.17;;;1.00;;
11439;SDS011;5776;51.814;4.510;2023-01-06T07:51:53;2.70;;;1.00;;
11439;SDS011;5776;51.814;4.510;2023-01-06T07:54:19;2.10;;;0.80;;
11439;SDS011;5776;51.814;4.510;2023-01-06T07:56:45;4.30;;;1.10;;
11439;SDS011;5776;51.814;4.510;2023-01-06T07:59:11;3.13;;;0.90;;
11439;SDS011;5776;51.814;4.510;2023-01-06T08:01:37;8.53;;;1.37;;
11439;SDS011;5776;51.814;4.510;2023-01-06T08:04:03;6.20;;;0.83;;
11439;SDS011;5776;51.814;4.510;2023-01-06T08:06:29;5.27;;;1.00;;
11439;SDS011;5776;51.814;4.510;2023-01-06T08:08:55;10.90;;;1.63;;
11439;SDS011;5776;51.814;4.510;2023-01-06T08:11:21;6.30;;;1.30;;
11439;SDS011;5776;51.814;4.510;2023-01-06T08:13:47;8.37;;;1.10;;
11439;SDS011;5776;51.814;4.510;2023-01-06T08:16:13;8.70;;;1.67;;
11439;SDS011;5776;51.814;4.510;2023-01-06T08:18:38;5.37;;;1.00;;
11439;SDS011;5776;51.814;4.510;2023-01-06T08:21:08;7.07;;;1.60;;
11439;SDS011;5776;51.814;4.510;2023-01-06T08:23:35;12.33;;;1.30;;
11439;SDS011;5776;51.814;4.510;2023-01-06T08:26:05;9.93;;;1.37;;
11439;SDS011;5776;51.814;4.510;2023-01-06T08:28:33;5.77;;;1.70;;
11439;SDS011;5776;51.814;4.510;2023-01-06T08:30:59;9.10;;;1.20;;
11439;SDS011;5776;51.814;4.510;2023-01-06T08:33:25;7.23;;;1.27;;
11439;SDS011;5776;51.814;4.510;2023-01-06T08:35:56;6.97;;;1.20;;
11439;SDS011;5776;51.814;4.510;2023-01-06T08:38:26;6.77;;;1.53;;
11439;SDS011;5776;51.814;4.510;2023-01-06T08:40:54;7.23;;;1.30;;
11439;SDS011;5776;51.814;4.510;2023-01-06T08:43:20;4.07;;;1.27;;
11439;SDS011;5776;51.814;4.510;2023-01-06T08:45:47;9.17;;;1.50;;
11439;SDS011;5776;51.814;4.510;2023-01-06T08:48:13;7.90;;;1.13;;
11439;SDS011;5776;51.814;4.510;2023-01-06T08:50:40;10.90;;;1.37;;
11439;SDS011;5776;51.814;4.510;2023-01-06T08:53:07;10.03;;;1.50;;
11439;SDS011;5776;51.814;4.510;2023-01-06T08:55:36;6.63;;;1.20;;
11439;SDS011;5776;51.814;4.510;2023-01-06T08:58:04;5.47;;;1.10;;
11439;SDS011;5776;51.814;4.510;2023-01-06T09:00:30;9.67;;;1.40;;
11439;SDS011;5776;51.814;4.510;2023-01-06T09:02:56;8.93;;;1.27;;
11439;SDS011;5776;51.814;4.510;2023-01-06T09:05:22;7.50;;;1.17;;
11439;SDS011;5776;51.814;4.510;2023-01-06T09:07:48;6.40;;;1.20;;
11439;SDS011;5776;51.814;4.510;2023-01-06T09:10:17;8.43;;;1.50;;
11439;SDS011;5776;51.814;4.510;2023-01-06T09:12:44;7.57;;;0.80;;
11439;SDS011;5776;51.814;4.510;2023-01-06T09:15:10;7.47;;;1.07;;
11439;SDS011;5776;51.814;4.510;2023-01-06T09:17:36;8.63;;;1.43;;
11439;SDS011;5776;51.814;4.510;2023-01-06T09:20:02;9.43;;;1.13;;
11439;SDS011;5776;51.814;4.510;2023-01-06T09:22:29;2.83;;;0.90;;
11439;SDS011;5776;51.814;4.510;2023-01-06T09:24:55;2.57;;;0.80;;
11439;SDS011;5776;51.814;4.510;2023-01-06T09:27:21;3.97;;;0.77;;
11439;SDS011;5776;51.814;4.510;2023-01-06T09:29:47;5.20;;;0.73;;
11439;SDS011;5776;51.814;4.510;2023-01-06T09:32:13;4.10;;;1.07;;
11439;SDS011;5776;51.814;4.510;2023-01-06T09:34:39;7.40;;;1.23;;
11439;SDS011;5776;51.814;4.510;2023-01-06T09:37:05;8.80;;;1.20;;
11439;SDS011;5776;51.814;4.510;2023-01-06T09:39:31;4.30;;;0.90;;
11439;SDS011;5776;51.814;4.510;2023-01-06T09:44:57;22.23;;;2.10;;
11439;SDS011;5776;51.814;4.510;2023-01-06T09:47:39;4.77;;;1.00;;
11439;SDS011;5776;51.814;4.510;2023-01-06T09:53:11;5.43;;;0.73;;
11439;SDS011;5776;51.814;4.510;2023-01-06T09:55:42;5.57;;;1.30;;
11439;SDS011;5776;51.814;4.510;2023-01-06T09:58:15;3.90;;;0.90;;
11439;SDS011;5776;51.814;4.510;2023-01-06T10:03:15;7.63;;;1.00;;
11439;SDS011;5776;51.814;4.510;2023-01-06T10:13:28;6.33;;;0.90;;
11439;SDS011;5776;51.814;4.510;2023-01-06T10:22:06;5.80;;;1.13;;
11439;SDS011;5776;51.814;4.510;2023-01-06T10:24:44;3.57;;;0.83;;
11439;SDS011;5776;51.814;4.510;2023-01-06T10:27:24;6.00;;;1.03;;
11439;SDS011;5776;51.814;4.510;2023-01-06T10:30:00;5.83;;;1.20;;
11439;SDS011;5776;51.814;4.510;2023-01-06T10:32:28;9.27;;;1.20;;
11439;SDS011;5776;51.814;4.510;2023-01-06T10:34:58;8.73;;;1.23;;
11439;SDS011;5776;51.814;4.510;2023-01-06T10:37:27;6.77;;;1.20;;
11439;SDS011;5776;51.814;4.510;2023-01-06T10:40:20;4.37;;;0.90;;
11439;SDS011;5776;51.814;4.510;2023-01-06T10:45:28;2.97;;;0.70;;
11439;SDS011;5776;51.814;4.510;2023-01-06T10:48:03;4.10;;;0.93;;
11439;SDS011;5776;51.814;4.510;2023-01-06T10:50:32;5.07;;;0.93;;
11439;SDS011;5776;51.814;4.510;2023-01-06T10:52:59;6.63;;;0.90;;
11439;SDS011;5776;51.814;4.510;2023-01-06T10:55:27;6.70;;;1.00;;
11439;SDS011;5776;51.814;4.510;2023-01-06T10:58:05;1.57;;;0.40;;
11439;SDS011;5776;51.814;4.510;2023-01-06T11:00:43;4.27;;;0.93;;
11439;SDS011;5776;51.814;4.510;2023-01-06T11:03:41;2.60;;;0.57;;
11439;SDS011;5776;51.814;4.510;2023-01-06T11:06:14;3.70;;;0.80;;
11439;SDS011;5776;51.814;4.510;2023-01-06T11:08:42;1.90;;;0.80;;
11439;SDS011;5776;51.814;4.510;2023-01-06T11:11:15;3.97;;;0.80;;
11439;SDS011;5776;51.814;4.510;2023-01-06T11:13:45;7.17;;;1.10;;
11439;SDS011;5776;51.814;4.510;2023-01-06T11:16:30;6.10;;;0.90;;
11439;SDS011;5776;51.814;4.510;2023-01-06T11:18:59;2.27;;;0.63;;
11439;SDS011;5776;51.814;4.510;2023-01-06T11:21:36;4.67;;;0.87;;
11439;SDS011;5776;51.814;4.510;2023-01-06T11:24:15;3.77;;;0.90;;
11439;SDS011;5776;51.814;4.510;2023-01-06T11:26:51;4.53;;;0.90;;
11439;SDS011;5776;51.814;4.510;2023-01-06T11:29:29;8.30;;;1.23;;
11439;SDS011;5776;51.814;4.510;2023-01-06T11:32:00;1.77;;;0.70;;
11439;SDS011;5776;51.814;4.510;2023-01-06T11:34:29;5.27;;;1.20;;
11439;SDS011;5776;51.814;4.510;2023-01-06T11:36:55;5.10;;;0.70;;
11439;SDS011;5776;51.814;4.510;2023-01-06T11:39:24;6.43;;;0.90;;
11439;SDS011;5776;51.814;4.510;2023-01-06T11:41:55;7.97;;;1.17;;
11439;SDS011;5776;51.814;4.510;2023-01-06T11:47:00;2.13;;;0.80;;
11439;SDS011;5776;51.814;4.510;2023-01-06T11:49:48;2.20;;;0.60;;
11439;SDS011;5776;51.814;4.510;2023-01-06T12:06:06;4.33;;;0.70;;
11439;SDS011;5776;51.814;4.510;2023-01-06T12:08:55;1.67;;;0.80;;
11439;SDS011;5776;51.814;4.510;2023-01-06T12:11:47;6.00;;;1.20;;
11439;SDS011;5776;51.814;4.510;2023-01-06T12:14:16;4.13;;;0.90;;
11439;SDS011;5776;51.814;4.510;2023-01-06T12:19:52;4.30;;;0.60;;
11439;SDS011;5776;51.814;4.510;2023-01-06T12:22:44;4.17;;;0.80;;
11439;SDS011;5776;51.814;4.510;2023-01-06T12:25:23;7.97;;;0.90;;
11439;SDS011;5776;51.814;4.510;2023-01-06T12:27:53;4.57;;;0.60;;
11439;SDS011;5776;51.814;4.510;2023-01-06T12:30:44;4.23;;;1.03;;
11439;SDS011;5776;51.814;4.510;2023-01-06T12:33:34;2.73;;;0.93;;
11439;SDS011;5776;51.814;4.510;2023-01-06T12:36:12;4.90;;;0.80;;
11439;SDS011;5776;51.814;4.510;2023-01-06T12:44:49;5.07;;;1.07;;
11439;SDS011;5776;51.814;4.510;2023-01-06T12:49:55;6.17;;;0.70;;
11439;SDS011;5776;51.814;4.510;2023-01-06T12:52:31;3.57;;;0.80;;
11439;SDS011;5776;51.814;4.510;2023-01-06T12:55:11;3.20;;;0.70;;
11439;SDS011;5776;51.814;4.510;2023-01-06T13:00:36;2.30;;;0.87;;
11439;SDS011;5776;51.814;4.510;2023-01-06T13:05:49;3.60;;;0.80;;
11439;SDS011;5776;51.814;4.510;2023-01-06T13:16:28;3.93;;;1.00;;
11439;SDS011;5776;51.814;4.510;2023-01-06T13:19:09;3.63;;;0.80;;
11439;SDS011;5776;51.814;4.510;2023-01-06T13:21:56;4.97;;;0.80;;
11439;SDS011;5776;51.814;4.510;2023-01-06T13:38:30;6.43;;;0.80;;
11439;SDS011;5776;51.814;4.510;2023-01-06T13:41:06;6.47;;;1.10;;
11439;SDS011;5776;51.814;4.510;2023-01-06T13:43:46;6.43;;;1.20;;
11439;SDS011;5776;51.814;4.510;2023-01-06T13:46:14;3.47;;;0.80;;
11439;SDS011;5776;51.814;4.510;2023-01-06T13:48:50;2.40;;;0.53;;
11439;SDS011;5776;51.814;4.510;2023-01-06T13:51:21;4.30;;;1.00;;
11439;SDS011;5776;51.814;4.510;2023-01-06T13:53:52;5.63;;;0.67;;
11439;SDS011;5776;51.814;4.510;2023-01-06T13:58:45;8.30;;;1.00;;
11439;SDS011;5776;51.814;4.510;2023-01-06T14:01:32;6.37;;;0.80;;
11439;SDS011;5776;51.814;4.510;2023-01-06T14:07:04;4.47;;;0.70;;
11439;SDS011;5776;51.814;4.510;2023-01-06T14:09:30;2.33;;;0.80;;
11439;SDS011;5776;51.814;4.510;2023-01-06T14:12:13;7.90;;;0.90;;
11439;SDS011;5776;51.814;4.510;2023-01-06T14:14:43;3.50;;;0.77;;
11439;SDS011;5776;51.814;4.510;2023-01-06T14:17:30;3.70;;;0.73;;
11439;SDS011;5776;51.814;4.510;2023-01-06T14:20:01;4.90;;;0.90;;
11439;SDS011;5776;51.814;4.510;2023-01-06T14:22:27;3.93;;;1.00;;
11439;SDS011;5776;51.814;4.510;2023-01-06T14:24:55;5.23;;;1.00;;
11439;SDS011;5776;51.814;4.510;2023-01-06T14:30:47;3.10;;;0.80;;
11439;SDS011;5776;51.814;4.510;2023-01-06T14:35:39;4.33;;;0.83;;
11439;SDS011;5776;51.814;4.510;2023-01-06T14:38:28;2.37;;;0.73;;
11439;SDS011;5776;51.814;4.510;2023-01-06T14:46:01;7.33;;;1.47;;
11439;SDS011;5776;51.814;4.510;2023-01-06T14:48:31;6.60;;;1.43;;
11439;SDS011;5776;51.814;4.510;2023-01-06T14:51:03;5.20;;;1.30;;
11439;SDS011;5776;51.814;4.510;2023-01-06T14:53:36;4.23;;;1.30;;
11439;SDS011;5776;51.814;4.510;2023-01-06T14:56:11;11.87;;;1.87;;
11439;SDS011;5776;51.814;4.510;2023-01-06T14:58:42;6.80;;;1.23;;
11439;SDS011;5776;51.814;4.510;2023-01-06T15:01:22;3.17;;;1.20;;
11439;SDS011;5776;51.814;4.510;2023-01-06T15:03:53;6.37;;;1.50;;
11439;SDS011;5776;51.814;4.510;2023-01-06T15:06:22;4.33;;;1.40;;
11439;SDS011;5776;51.814;4.510;2023-01-06T15:08:51;10.83;;;1.83;;
11439;SDS011;5776;51.814;4.510;2023-01-06T15:11:29;6.77;;;1.97;;
11439;SDS011;5776;51.814;4.510;2023-01-06T15:13:56;8.57;;;1.90;;
11439;SDS011;5776;51.814;4.510;2023-01-06T15:19:05;6.50;;;2.40;;
11439;SDS011;5776;51.814;4.510;2023-01-06T15:21:38;12.30;;;2.30;;
11439;SDS011;5776;51.814;4.510;2023-01-06T15:24:14;9.53;;;1.97;;
11439;SDS011;5776;51.814;4.510;2023-01-06T15:26:47;8.57;;;2.10;;
11439;SDS011;5776;51.814;4.510;2023-01-06T15:29:16;6.03;;;1.60;;
11439;SDS011;5776;51.814;4.510;2023-01-06T15:31:45;4.83;;;2.53;;
11439;SDS011;5776;51.814;4.510;2023-01-06T15:34:15;4.10;;;1.43;;
11439;SDS011;5776;51.814;4.510;2023-01-06T15:36:44;9.13;;;1.33;;
11439;SDS011;5776;51.814;4.510;2023-01-06T15:39:14;5.33;;;1.40;;
11439;SDS011;5776;51.814;4.510;2023-01-06T15:41:46;2.40;;;1.00;;
11439;SDS011;5776;51.814;4.510;2023-01-06T15:44:19;6.97;;;1.40;;
11439;SDS011;5776;51.814;4.510;2023-01-06T15:46:46;7.73;;;1.47;;
11439;SDS011;5776;51.814;4.510;2023-01-06T15:49:24;9.70;;;1.53;;
11439;SDS011;5776;51.814;4.510;2023-01-06T15:51:54;2.30;;;1.10;;
11439;SDS011;5776;51.814;4.510;2023-01-06T15:54:31;3.90;;;1.07;;
11439;SDS011;5776;51.814;4.510;2023-01-06T15:57:00;7.97;;;1.27;;
11439;SDS011;5776;51.814;4.510;2023-01-06T15:59:27;4.13;;;1.30;;
11439;SDS011;5776;51.814;4.510;2023-01-06T16:01:53;4.03;;;1.30;;
11439;SDS011;5776;51.814;4.510;2023-01-06T16:04:21;4.53;;;1.80;;
11439;SDS011;5776;51.814;4.510;2023-01-06T16:06:48;8.47;;;1.80;;
11439;SDS011;5776;51.814;4.510;2023-01-06T16:14:47;4.30;;;1.30;;
11439;SDS011;5776;51.814;4.510;2023-01-06T16:17:21;4.90;;;1.40;;
11439;SDS011;5776;51.814;4.510;2023-01-06T16:19:50;2.80;;;1.20;;
11439;SDS011;5776;51.814;4.510;2023-01-06T16:22:46;9.00;;;2.17;;
11439;SDS011;5776;51.814;4.510;2023-01-06T16:27:49;6.10;;;1.60;;
11439;SDS011;5776;51.814;4.510;2023-01-06T16:32:45;6.43;;;1.90;;
11439;SDS011;5776;51.814;4.510;2023-01-06T16:35:13;6.33;;;1.60;;
11439;SDS011;5776;51.814;4.510;2023-01-06T16:37:41;13.23;;;1.80;;
11439;SDS011;5776;51.814;4.510;2023-01-06T16:40:17;8.60;;;1.80;;
11439;SDS011;5776;51.814;4.510;2023-01-06T16:42:46;8.50;;;1.70;;
11439;SDS011;5776;51.814;4.510;2023-01-06T16:47:57;7.67;;;2.03;;
11439;SDS011;5776;51.814;4.510;2023-01-06T16:55:43;12.57;;;3.07;;
11439;SDS011;5776;51.814;4.510;2023-01-06T16:58:14;11.33;;;5.80;;
11439;SDS011;5776;51.814;4.510;2023-01-06T17:00:42;8.23;;;4.53;;
11439;SDS011;5776;51.814;4.510;2023-01-06T17:03:17;10.67;;;4.07;;
11439;SDS011;5776;51.814;4.510;2023-01-06T17:05:45;7.33;;;3.13;;
11439;SDS011;5776;51.814;4.510;2023-01-06T17:08:12;4.87;;;2.60;;
11439;SDS011;5776;51.814;4.510;2023-01-06T17:10:40;11.00;;;2.60;;
11439;SDS011;5776;51.814;4.510;2023-01-06T17:13:07;7.87;;;2.87;;
11439;SDS011;5776;51.814;4.510;2023-01-06T17:16:00;8.53;;;2.40;;
11439;SDS011;5776;51.814;4.510;2023-01-06T17:18:37;5.83;;;2.53;;
11439;SDS011;5776;51.814;4.510;2023-01-06T17:21:14;6.97;;;2.73;;
11439;SDS011;5776;51.814;4.510;2023-01-06T17:23:42;5.83;;;2.50;;
11439;SDS011;5776;51.814;4.510;2023-01-06T17:26:16;6.27;;;2.80;;
11439;SDS011;5776;51.814;4.510;2023-01-06T17:28:44;7.10;;;2.90;;
11439;SDS011;5776;51.814;4.510;2023-01-06T17:31:15;4.33;;;2.70;;
11439;SDS011;5776;51.814;4.510;2023-01-06T17:33:45;6.90;;;2.70;;
11439;SDS011;5776;51.814;4.510;2023-01-06T17:36:16;6.93;;;2.70;;
11439;SDS011;5776;51.814;4.510;2023-01-06T17:38:47;7.40;;;2.60;;
11439;SDS011;5776;51.814;4.510;2023-01-06T17:41:15;7.93;;;3.73;;
11439;SDS011;5776;51.814;4.510;2023-01-06T17:43:41;7.77;;;2.87;;
11439;SDS011;5776;51.814;4.510;2023-01-06T17:46:22;6.43;;;3.47;;
11439;SDS011;5776;51.814;4.510;2023-01-06T17:49:00;5.67;;;3.10;;
11439;SDS011;5776;51.814;4.510;2023-01-06T17:51:32;5.03;;;3.60;;
11439;SDS011;5776;51.814;4.510;2023-01-06T17:53:58;7.10;;;3.90;;
11439;SDS011;5776;51.814;4.510;2023-01-06T17:56:42;5.33;;;4.10;;
11439;SDS011;5776;51.814;4.510;2023-01-06T17:59:12;7.90;;;4.60;;
11439;SDS011;5776;51.814;4.510;2023-01-06T18:01:41;6.77;;;4.60;;
11439;SDS011;5776;51.814;4.510;2023-01-06T18:04:16;6.07;;;4.37;;